sensor_id;sensor_type;location;lat;lon;timestamp;P1;durP1;ratioP1;P2;durP2;ratioP2
77864;SDS011;67061;48.524;9.040;2023-08-24T00:01:56;10.40;;;9.40;;
77864;SDS011;67061;48.524;9.040;2023-08-24T00:04:23;10.43;;;9.15;;
77864;SDS011;67061;48.524;9.040;2023-08-24T00:06:49;10.50;;;8.98;;
77864;SDS011;67061;48.524;9.040;2023-08-24T00:09:16;10.43;;;9.30;;
77864;SDS011;67061;48.524;9.040;2023-08-24T00:11:44;9.93;;;8.93;;
77864;SDS011;67061;48.524;9.040;2023-08-24T00:14:12;10.38;;;9.38;;
77864;SDS011;67061;48.524;9.040;2023-08-24T00:16:39;10.68;;;9.57;;
77864;SDS011;67061;48.524;9.040;2023-08-24T00:19:06;10.88;;;9.77;;
77864;SDS011;67061;48.524;9.040;2023-08-24T00:21:33;9.90;;;8.90;;
77864;SDS011;67061;48.524;9.040;2023-08-24T00:24:00;9.90;;;8.90;;
77864;SDS011;67061;48.524;9.040;2023-08-24T00:26:26;10.98;;;9.18;;
77864;SDS011;67061;48.524;9.040;2023-08-24T00:28:53;10.13;;;9.15;;
77864;SDS011;67061;48.524;9.040;2023-08-24T00:31:22;10.20;;;9.23;;
77864;SDS011;67061;48.524;9.040;2023-08-24T00:33:48;10.23;;;9.23;;
77864;SDS011;67061;48.524;9.040;2023-08-24T00:36:16;10.80;;;8.93;;
77864;SDS011;67061;48.524;9.040;2023-08-24T00:38:44;9.77;;;8.77;;
77864;SDS011;67061;48.524;9.040;2023-08-24T00:41:15;9.73;;;8.73;;
77864;SDS011;67061;48.524;9.040;2023-08-24T00:43:42;10.38;;;8.95;;
77864;SDS011;67061;48.524;9.040;2023-08-24T00:46:09;10.63;;;8.63;;
77864;SDS011;67061;48.524;9.040;2023-08-24T00:48:38;9.77;;;8.77;;
77864;SDS011;67061;48.524;9.040;2023-08-24T00:51:04;10.98;;;9.27;;
77864;SDS011;67061;48.524;9.040;2023-08-24T00:53:31;10.27;;;8.65;;
77864;SDS011;67061;48.524;9.040;2023-08-24T00:55:59;10.93;;;9.27;;
77864;SDS011;67061;48.524;9.040;2023-08-24T00:58:26;10.30;;;9.30;;
77864;SDS011;67061;48.524;9.040;2023-08-24T01:00:53;10.82;;;9.73;;
77864;SDS011;67061;48.524;9.040;2023-08-24T01:03:21;11.07;;;10.07;;
77864;SDS011;67061;48.524;9.040;2023-08-24T01:05:50;10.20;;;9.25;;
77864;SDS011;67061;48.524;9.040;2023-08-24T01:10:45;9.68;;;8.70;;
77864;SDS011;67061;48.524;9.040;2023-08-24T01:13:20;10.10;;;9.20;;
77864;SDS011;67061;48.524;9.040;2023-08-24T01:15:55;10.52;;;9.43;;
77864;SDS011;67061;48.524;9.040;2023-08-24T01:18:28;11.60;;;10.25;;
77864;SDS011;67061;48.524;9.040;2023-08-24T01:23:32;9.65;;;8.65;;
77864;SDS011;67061;48.524;9.040;2023-08-24T01:26:07;9.77;;;8.77;;
77864;SDS011;67061;48.524;9.040;2023-08-24T01:28:36;10.23;;;9.23;;
77864;SDS011;67061;48.524;9.040;2023-08-24T01:31:03;9.57;;;8.57;;
77864;SDS011;67061;48.524;9.040;2023-08-24T01:33:30;10.30;;;9.25;;
77864;SDS011;67061;48.524;9.040;2023-08-24T01:35:57;9.20;;;8.13;;
77864;SDS011;67061;48.524;9.040;2023-08-24T01:38:24;10.63;;;9.07;;
77864;SDS011;67061;48.524;9.040;2023-08-24T01:40:53;9.98;;;9.05;;
77864;SDS011;67061;48.524;9.040;2023-08-24T01:43:30;10.27;;;8.57;;
77864;SDS011;67061;48.524;9.040;2023-08-24T01:46:01;10.73;;;8.85;;
77864;SDS011;67061;48.524;9.040;2023-08-24T01:48:30;8.07;;;6.90;;
77864;SDS011;67061;48.524;9.040;2023-08-24T01:50:58;10.30;;;9.23;;
77864;SDS011;67061;48.524;9.040;2023-08-24T01:53:26;10.43;;;9.32;;
77864;SDS011;67061;48.524;9.040;2023-08-24T01:55:56;10.38;;;9.30;;
77864;SDS011;67061;48.524;9.040;2023-08-24T01:58:23;10.02;;;9.13;;
77864;SDS011;67061;48.524;9.040;2023-08-24T02:00:50;9.93;;;8.90;;
77864;SDS011;67061;48.524;9.040;2023-08-24T02:03:17;10.52;;;9.45;;
77864;SDS011;67061;48.524;9.040;2023-08-24T02:05:44;11.93;;;9.82;;
77864;SDS011;67061;48.524;9.040;2023-08-24T02:08:11;11.82;;;9.15;;
77864;SDS011;67061;48.524;9.040;2023-08-24T02:10:38;10.20;;;8.93;;
77864;SDS011;67061;48.524;9.040;2023-08-24T02:13:04;10.07;;;8.85;;
77864;SDS011;67061;48.524;9.040;2023-08-24T02:15:31;10.52;;;9.10;;
77864;SDS011;67061;48.524;9.040;2023-08-24T02:17:59;11.75;;;9.68;;
77864;SDS011;67061;48.524;9.040;2023-08-24T02:20:26;9.52;;;8.40;;
77864;SDS011;67061;48.524;9.040;2023-08-24T02:22:53;10.48;;;9.48;;
77864;SDS011;67061;48.524;9.040;2023-08-24T02:25:20;10.25;;;9.35;;
77864;SDS011;67061;48.524;9.040;2023-08-24T02:27:47;10.52;;;9.52;;
77864;SDS011;67061;48.524;9.040;2023-08-24T02:30:14;8.75;;;7.72;;
77864;SDS011;67061;48.524;9.040;2023-08-24T02:32:41;10.82;;;9.65;;
77864;SDS011;67061;48.524;9.040;2023-08-24T02:35:09;10.10;;;9.20;;
77864;SDS011;67061;48.524;9.040;2023-08-24T02:37:36;10.43;;;9.32;;
77864;SDS011;67061;48.524;9.040;2023-08-24T02:40:03;9.30;;;8.18;;
77864;SDS011;67061;48.524;9.040;2023-08-24T02:42:31;10.40;;;9.40;;
77864;SDS011;67061;48.524;9.040;2023-08-24T02:44:58;12.02;;;9.10;;
77864;SDS011;67061;48.524;9.040;2023-08-24T02:47:25;9.85;;;8.88;;
77864;SDS011;67061;48.524;9.040;2023-08-24T02:49:52;9.65;;;8.68;;
77864;SDS011;67061;48.524;9.040;2023-08-24T02:52:21;8.55;;;7.65;;
77864;SDS011;67061;48.524;9.040;2023-08-24T02:54:47;10.60;;;9.18;;
77864;SDS011;67061;48.524;9.040;2023-08-24T02:57:14;13.07;;;10.25;;
77864;SDS011;67061;48.524;9.040;2023-08-24T02:59:41;11.48;;;10.35;;
77864;SDS011;67061;48.524;9.040;2023-08-24T03:02:09;10.45;;;9.43;;
77864;SDS011;67061;48.524;9.040;2023-08-24T03:04:36;11.65;;;10.32;;
77864;SDS011;67061;48.524;9.040;2023-08-24T03:07:03;11.02;;;9.70;;
77864;SDS011;67061;48.524;9.040;2023-08-24T03:09:34;11.00;;;10.00;;
77864;SDS011;67061;48.524;9.040;2023-08-24T03:12:01;11.40;;;9.98;;
77864;SDS011;67061;48.524;9.040;2023-08-24T03:14:28;10.35;;;9.40;;
77864;SDS011;67061;48.524;9.040;2023-08-24T03:16:55;11.02;;;9.93;;
77864;SDS011;67061;48.524;9.040;2023-08-24T03:19:21;11.80;;;10.60;;
77864;SDS011;67061;48.524;9.040;2023-08-24T03:21:48;11.20;;;10.13;;
77864;SDS011;67061;48.524;9.040;2023-08-24T03:24:15;13.73;;;10.65;;
77864;SDS011;67061;48.524;9.040;2023-08-24T03:26:44;11.13;;;10.02;;
77864;SDS011;67061;48.524;9.040;2023-08-24T03:29:11;11.70;;;10.63;;
77864;SDS011;67061;48.524;9.040;2023-08-24T03:31:37;11.75;;;9.50;;
77864;SDS011;67061;48.524;9.040;2023-08-24T03:34:04;12.05;;;10.40;;
77864;SDS011;67061;48.524;9.040;2023-08-24T03:36:31;11.00;;;9.98;;
77864;SDS011;67061;48.524;9.040;2023-08-24T03:38:58;12.27;;;10.13;;
77864;SDS011;67061;48.524;9.040;2023-08-24T03:41:25;10.63;;;9.63;;
77864;SDS011;67061;48.524;9.040;2023-08-24T03:43:53;11.48;;;10.15;;
77864;SDS011;67061;48.524;9.040;2023-08-24T03:48:47;11.80;;;9.20;;
77864;SDS011;67061;48.524;9.040;2023-08-24T03:51:14;11.65;;;10.15;;
77864;SDS011;67061;48.524;9.040;2023-08-24T03:53:41;12.32;;;9.75;;
77864;SDS011;67061;48.524;9.040;2023-08-24T03:56:08;11.15;;;10.05;;
77864;SDS011;67061;48.524;9.040;2023-08-24T03:58:34;10.65;;;8.45;;
77864;SDS011;67061;48.524;9.040;2023-08-24T04:01:03;11.63;;;10.43;;
77864;SDS011;67061;48.524;9.040;2023-08-24T04:03:32;11.85;;;10.65;;
77864;SDS011;67061;48.524;9.040;2023-08-24T04:05:58;10.93;;;8.77;;
77864;SDS011;67061;48.524;9.040;2023-08-24T04:08:25;12.45;;;10.80;;
77864;SDS011;67061;48.524;9.040;2023-08-24T04:10:52;12.13;;;10.85;;
77864;SDS011;67061;48.524;9.040;2023-08-24T04:13:19;12.05;;;10.75;;
77864;SDS011;67061;48.524;9.040;2023-08-24T04:15:46;12.35;;;11.15;;
77864;SDS011;67061;48.524;9.040;2023-08-24T04:18:15;10.95;;;9.85;;
77864;SDS011;67061;48.524;9.040;2023-08-24T04:20:41;12.10;;;10.48;;
77864;SDS011;67061;48.524;9.040;2023-08-24T04:23:08;11.05;;;9.88;;
77864;SDS011;67061;48.524;9.040;2023-08-24T04:25:38;10.52;;;9.40;;
77864;SDS011;67061;48.524;9.040;2023-08-24T04:28:05;11.02;;;9.82;;
77864;SDS011;67061;48.524;9.040;2023-08-24T04:30:32;11.32;;;10.13;;
77864;SDS011;67061;48.524;9.040;2023-08-24T04:32:59;10.18;;;9.02;;
77864;SDS011;67061;48.524;9.040;2023-08-24T04:35:30;11.30;;;9.98;;
77864;SDS011;67061;48.524;9.040;2023-08-24T04:38:00;10.38;;;9.32;;
77864;SDS011;67061;48.524;9.040;2023-08-24T04:40:27;10.88;;;9.77;;
77864;SDS011;67061;48.524;9.040;2023-08-24T04:42:53;12.63;;;10.35;;
77864;SDS011;67061;48.524;9.040;2023-08-24T04:45:20;11.55;;;9.98;;
77864;SDS011;67061;48.524;9.040;2023-08-24T04:47:47;13.75;;;11.68;;
77864;SDS011;67061;48.524;9.040;2023-08-24T04:50:14;13.60;;;8.25;;
77864;SDS011;67061;48.524;9.040;2023-08-24T04:52:42;11.73;;;10.63;;
77864;SDS011;67061;48.524;9.040;2023-08-24T04:55:09;12.43;;;9.80;;
77864;SDS011;67061;48.524;9.040;2023-08-24T04:57:36;10.85;;;9.75;;
77864;SDS011;67061;48.524;9.040;2023-08-24T05:00:03;11.82;;;10.73;;
77864;SDS011;67061;48.524;9.040;2023-08-24T05:02:31;10.73;;;9.63;;
77864;SDS011;67061;48.524;9.040;2023-08-24T05:04:58;12.02;;;9.95;;
77864;SDS011;67061;48.524;9.040;2023-08-24T05:07:25;11.88;;;10.70;;
77864;SDS011;67061;48.524;9.040;2023-08-24T05:09:54;11.85;;;10.02;;
77864;SDS011;67061;48.524;9.040;2023-08-24T05:12:21;9.80;;;8.80;;
77864;SDS011;67061;48.524;9.040;2023-08-24T05:14:48;11.48;;;10.30;;
77864;SDS011;67061;48.524;9.040;2023-08-24T05:17:15;11.50;;;10.35;;
77864;SDS011;67061;48.524;9.040;2023-08-24T05:19:42;11.27;;;10.15;;
77864;SDS011;67061;48.524;9.040;2023-08-24T05:22:08;11.68;;;9.80;;
77864;SDS011;67061;48.524;9.040;2023-08-24T05:24:35;12.60;;;10.90;;
77864;SDS011;67061;48.524;9.040;2023-08-24T05:27:04;11.57;;;10.13;;
77864;SDS011;67061;48.524;9.040;2023-08-24T05:29:31;13.32;;;12.13;;
77864;SDS011;67061;48.524;9.040;2023-08-24T05:31:58;11.13;;;10.00;;
77864;SDS011;67061;48.524;9.040;2023-08-24T05:34:25;11.40;;;10.30;;
77864;SDS011;67061;48.524;9.040;2023-08-24T05:36:52;11.00;;;9.65;;
77864;SDS011;67061;48.524;9.040;2023-08-24T05:39:19;11.65;;;10.45;;
77864;SDS011;67061;48.524;9.040;2023-08-24T05:41:46;11.25;;;10.05;;
77864;SDS011;67061;48.524;9.040;2023-08-24T05:44:18;12.18;;;10.45;;
77864;SDS011;67061;48.524;9.040;2023-08-24T05:46:46;9.80;;;8.75;;
77864;SDS011;67061;48.524;9.040;2023-08-24T05:49:13;12.15;;;9.70;;
77864;SDS011;67061;48.524;9.040;2023-08-24T05:51:40;13.95;;;11.23;;
77864;SDS011;67061;48.524;9.040;2023-08-24T05:54:07;11.77;;;10.68;;
77864;SDS011;67061;48.524;9.040;2023-08-24T05:56:34;10.75;;;8.23;;
77864;SDS011;67061;48.524;9.040;2023-08-24T05:59:01;10.73;;;9.70;;
77864;SDS011;67061;48.524;9.040;2023-08-24T06:01:29;12.35;;;10.27;;
77864;SDS011;67061;48.524;9.040;2023-08-24T06:03:56;12.23;;;10.85;;
77864;SDS011;67061;48.524;9.040;2023-08-24T06:06:23;12.68;;;11.02;;
77864;SDS011;67061;48.524;9.040;2023-08-24T06:08:50;11.68;;;10.48;;
77864;SDS011;67061;48.524;9.040;2023-08-24T06:11:17;11.80;;;10.68;;
77864;SDS011;67061;48.524;9.040;2023-08-24T06:13:44;11.77;;;10.60;;
77864;SDS011;67061;48.524;9.040;2023-08-24T06:16:11;12.50;;;11.30;;
77864;SDS011;67061;48.524;9.040;2023-08-24T06:18:39;11.52;;;10.38;;
77864;SDS011;67061;48.524;9.040;2023-08-24T06:21:06;11.73;;;10.63;;
77864;SDS011;67061;48.524;9.040;2023-08-24T06:23:33;11.30;;;10.30;;
77864;SDS011;67061;48.524;9.040;2023-08-24T06:26:00;12.30;;;11.15;;
77864;SDS011;67061;48.524;9.040;2023-08-24T06:28:27;11.25;;;9.98;;
77864;SDS011;67061;48.524;9.040;2023-08-24T06:30:54;12.25;;;10.80;;
77864;SDS011;67061;48.524;9.040;2023-08-24T06:33:21;12.10;;;10.90;;
77864;SDS011;67061;48.524;9.040;2023-08-24T06:35:56;12.10;;;10.93;;
77864;SDS011;67061;48.524;9.040;2023-08-24T06:38:23;11.38;;;10.27;;
77864;SDS011;67061;48.524;9.040;2023-08-24T06:40:50;11.73;;;10.52;;
77864;SDS011;67061;48.524;9.040;2023-08-24T06:43:17;11.73;;;8.70;;
77864;SDS011;67061;48.524;9.040;2023-08-24T06:45:44;14.25;;;10.70;;
77864;SDS011;67061;48.524;9.040;2023-08-24T06:48:11;12.40;;;11.18;;
77864;SDS011;67061;48.524;9.040;2023-08-24T06:50:38;15.85;;;12.30;;
77864;SDS011;67061;48.524;9.040;2023-08-24T06:53:06;14.93;;;13.50;;
77864;SDS011;67061;48.524;9.040;2023-08-24T06:55:33;14.38;;;12.80;;
77864;SDS011;67061;48.524;9.040;2023-08-24T06:57:59;12.30;;;11.00;;
77864;SDS011;67061;48.524;9.040;2023-08-24T07:00:27;11.68;;;10.68;;
77864;SDS011;67061;48.524;9.040;2023-08-24T07:02:54;12.93;;;11.73;;
77864;SDS011;67061;48.524;9.040;2023-08-24T07:05:21;12.07;;;10.85;;
77864;SDS011;67061;48.524;9.040;2023-08-24T07:07:49;13.85;;;10.20;;
77864;SDS011;67061;48.524;9.040;2023-08-24T07:10:17;11.18;;;10.07;;
77864;SDS011;67061;48.524;9.040;2023-08-24T07:12:44;12.30;;;11.00;;
77864;SDS011;67061;48.524;9.040;2023-08-24T07:15:11;13.02;;;11.70;;
77864;SDS011;67061;48.524;9.040;2023-08-24T07:17:38;11.85;;;10.65;;
77864;SDS011;67061;48.524;9.040;2023-08-24T07:20:06;9.75;;;8.73;;
77864;SDS011;67061;48.524;9.040;2023-08-24T07:22:34;11.02;;;9.82;;
77864;SDS011;67061;48.524;9.040;2023-08-24T07:25:01;11.68;;;10.30;;
77864;SDS011;67061;48.524;9.040;2023-08-24T07:27:31;11.80;;;9.90;;
77864;SDS011;67061;48.524;9.040;2023-08-24T07:32:25;12.63;;;10.55;;
77864;SDS011;67061;48.524;9.040;2023-08-24T07:34:52;10.70;;;9.80;;
77864;SDS011;67061;48.524;9.040;2023-08-24T07:37:19;10.93;;;9.50;;
77864;SDS011;67061;48.524;9.040;2023-08-24T07:39:46;11.77;;;10.43;;
77864;SDS011;67061;48.524;9.040;2023-08-24T07:42:13;12.35;;;11.07;;
77864;SDS011;67061;48.524;9.040;2023-08-24T07:44:51;9.63;;;8.18;;
77864;SDS011;67061;48.524;9.040;2023-08-24T07:49:45;10.88;;;9.85;;
77864;SDS011;67061;48.524;9.040;2023-08-24T07:52:12;12.40;;;9.80;;
77864;SDS011;67061;48.524;9.040;2023-08-24T07:54:39;11.02;;;9.93;;
77864;SDS011;67061;48.524;9.040;2023-08-24T07:57:06;12.27;;;10.10;;
77864;SDS011;67061;48.524;9.040;2023-08-24T07:59:33;10.77;;;7.97;;
77864;SDS011;67061;48.524;9.040;2023-08-24T08:02:01;12.48;;;10.52;;
77864;SDS011;67061;48.524;9.040;2023-08-24T08:04:28;12.02;;;10.15;;
77864;SDS011;67061;48.524;9.040;2023-08-24T08:06:55;10.65;;;9.55;;
77864;SDS011;67061;48.524;9.040;2023-08-24T08:09:22;11.93;;;10.70;;
77864;SDS011;67061;48.524;9.040;2023-08-24T08:11:49;12.35;;;10.30;;
77864;SDS011;67061;48.524;9.040;2023-08-24T08:14:16;11.48;;;9.98;;
77864;SDS011;67061;48.524;9.040;2023-08-24T08:16:44;11.48;;;10.38;;
77864;SDS011;67061;48.524;9.040;2023-08-24T08:19:12;11.52;;;10.27;;
77864;SDS011;67061;48.524;9.040;2023-08-24T08:24:06;12.27;;;10.98;;
77864;SDS011;67061;48.524;9.040;2023-08-24T08:26:33;11.15;;;10.05;;
77864;SDS011;67061;48.524;9.040;2023-08-24T08:29:00;10.50;;;9.50;;
77864;SDS011;67061;48.524;9.040;2023-08-24T08:31:27;10.30;;;9.23;;
77864;SDS011;67061;48.524;9.040;2023-08-24T08:33:54;10.77;;;9.70;;
77864;SDS011;67061;48.524;9.040;2023-08-24T08:36:22;10.38;;;9.38;;
77864;SDS011;67061;48.524;9.040;2023-08-24T08:38:49;10.63;;;9.32;;
77864;SDS011;67061;48.524;9.040;2023-08-24T08:41:16;11.00;;;9.82;;
77864;SDS011;67061;48.524;9.040;2023-08-24T08:43:47;9.40;;;8.50;;
77864;SDS011;67061;48.524;9.040;2023-08-24T08:46:15;10.50;;;9.15;;
77864;SDS011;67061;48.524;9.040;2023-08-24T08:48:42;10.38;;;9.27;;
77864;SDS011;67061;48.524;9.040;2023-08-24T08:51:11;10.55;;;9.20;;
77864;SDS011;67061;48.524;9.040;2023-08-24T08:53:41;9.52;;;8.52;;
77864;SDS011;67061;48.524;9.040;2023-08-24T08:56:08;9.45;;;8.52;;
77864;SDS011;67061;48.524;9.040;2023-08-24T08:58:35;9.82;;;8.93;;
77864;SDS011;67061;48.524;9.040;2023-08-24T09:01:03;10.23;;;9.18;;
77864;SDS011;67061;48.524;9.040;2023-08-24T09:03:31;7.95;;;7.20;;
77864;SDS011;67061;48.524;9.040;2023-08-24T09:05:58;9.93;;;8.88;;
77864;SDS011;67061;48.524;9.040;2023-08-24T09:08:25;10.48;;;9.40;;
77864;SDS011;67061;48.524;9.040;2023-08-24T09:10:54;10.00;;;9.00;;
77864;SDS011;67061;48.524;9.040;2023-08-24T09:13:21;8.73;;;7.75;;
77864;SDS011;67061;48.524;9.040;2023-08-24T09:15:51;9.77;;;7.70;;
77864;SDS011;67061;48.524;9.040;2023-08-24T09:18:18;9.57;;;8.65;;
77864;SDS011;67061;48.524;9.040;2023-08-24T09:20:47;9.35;;;8.45;;
77864;SDS011;67061;48.524;9.040;2023-08-24T09:23:17;8.77;;;7.97;;
77864;SDS011;67061;48.524;9.040;2023-08-24T09:25:45;9.27;;;8.38;;
77864;SDS011;67061;48.524;9.040;2023-08-24T09:28:15;8.82;;;7.93;;
77864;SDS011;67061;48.524;9.040;2023-08-24T09:30:49;9.63;;;8.73;;
77864;SDS011;67061;48.524;9.040;2023-08-24T09:33:20;9.02;;;8.07;;
77864;SDS011;67061;48.524;9.040;2023-08-24T09:35:51;9.15;;;7.60;;
77864;SDS011;67061;48.524;9.040;2023-08-24T09:38:19;8.75;;;7.82;;
77864;SDS011;67061;48.524;9.040;2023-08-24T09:40:50;9.45;;;8.48;;
77864;SDS011;67061;48.524;9.040;2023-08-24T09:43:19;9.45;;;8.25;;
77864;SDS011;67061;48.524;9.040;2023-08-24T09:45:47;10.48;;;7.78;;
77864;SDS011;67061;48.524;9.040;2023-08-24T09:50:43;8.35;;;7.45;;
77864;SDS011;67061;48.524;9.040;2023-08-24T09:53:11;9.15;;;7.05;;
77864;SDS011;67061;48.524;9.040;2023-08-24T09:55:43;9.73;;;8.75;;
77864;SDS011;67061;48.524;9.040;2023-08-24T09:58:13;8.95;;;8.13;;
77864;SDS011;67061;48.524;9.040;2023-08-24T10:00:42;9.52;;;8.55;;
77864;SDS011;67061;48.524;9.040;2023-08-24T10:03:12;9.10;;;8.25;;
77864;SDS011;67061;48.524;9.040;2023-08-24T10:05:45;8.30;;;7.47;;
77864;SDS011;67061;48.524;9.040;2023-08-24T10:08:14;14.93;;;7.95;;
77864;SDS011;67061;48.524;9.040;2023-08-24T10:10:44;8.20;;;7.50;;
77864;SDS011;67061;48.524;9.040;2023-08-24T10:13:14;9.13;;;7.05;;
77864;SDS011;67061;48.524;9.040;2023-08-24T10:15:48;9.18;;;8.25;;
77864;SDS011;67061;48.524;9.040;2023-08-24T10:18:18;8.20;;;7.40;;
77864;SDS011;67061;48.524;9.040;2023-08-24T10:20:45;13.25;;;9.15;;
77864;SDS011;67061;48.524;9.040;2023-08-24T10:25:42;12.93;;;8.20;;
77864;SDS011;67061;48.524;9.040;2023-08-24T10:30:37;8.02;;;7.22;;
77864;SDS011;67061;48.524;9.040;2023-08-24T10:33:06;7.80;;;6.38;;
77864;SDS011;67061;48.524;9.040;2023-08-24T10:35:33;10.55;;;7.97;;
77864;SDS011;67061;48.524;9.040;2023-08-24T10:38:01;8.35;;;7.50;;
77864;SDS011;67061;48.524;9.040;2023-08-24T10:40:32;8.80;;;7.05;;
77864;SDS011;67061;48.524;9.040;2023-08-24T10:43:02;9.15;;;8.05;;
77864;SDS011;67061;48.524;9.040;2023-08-24T10:48:23;8.52;;;7.65;;
77864;SDS011;67061;48.524;9.040;2023-08-24T10:53:51;9.75;;;8.45;;
77864;SDS011;67061;48.524;9.040;2023-08-24T10:56:19;7.25;;;6.25;;
77864;SDS011;67061;48.524;9.040;2023-08-24T10:58:47;8.43;;;7.63;;
77864;SDS011;67061;48.524;9.040;2023-08-24T11:01:37;9.73;;;7.93;;
77864;SDS011;67061;48.524;9.040;2023-08-24T11:04:06;10.32;;;7.95;;
77864;SDS011;67061;48.524;9.040;2023-08-24T11:06:34;8.75;;;7.72;;
77864;SDS011;67061;48.524;9.040;2023-08-24T11:09:07;9.52;;;7.80;;
77864;SDS011;67061;48.524;9.040;2023-08-24T11:11:39;9.85;;;8.02;;
77864;SDS011;67061;48.524;9.040;2023-08-24T11:14:15;8.95;;;7.68;;
77864;SDS011;67061;48.524;9.040;2023-08-24T11:16:45;7.90;;;7.20;;
77864;SDS011;67061;48.524;9.040;2023-08-24T11:21:41;8.88;;;7.63;;
77864;SDS011;67061;48.524;9.040;2023-08-24T11:24:09;9.32;;;7.13;;
77864;SDS011;67061;48.524;9.040;2023-08-24T11:26:41;8.57;;;7.25;;
77864;SDS011;67061;48.524;9.040;2023-08-24T11:29:09;9.32;;;7.20;;
77864;SDS011;67061;48.524;9.040;2023-08-24T11:31:37;8.30;;;7.28;;
77864;SDS011;67061;48.524;9.040;2023-08-24T11:34:04;11.27;;;7.45;;
77864;SDS011;67061;48.524;9.040;2023-08-24T11:36:42;9.25;;;8.18;;
77864;SDS011;67061;48.524;9.040;2023-08-24T11:39:14;9.73;;;8.40;;
77864;SDS011;67061;48.524;9.040;2023-08-24T11:41:43;9.75;;;7.72;;
77864;SDS011;67061;48.524;9.040;2023-08-24T11:44:10;9.30;;;7.47;;
77864;SDS011;67061;48.524;9.040;2023-08-24T11:46:38;8.73;;;7.50;;
77864;SDS011;67061;48.524;9.040;2023-08-24T11:49:05;10.35;;;7.25;;
77864;SDS011;67061;48.524;9.040;2023-08-24T11:51:32;8.00;;;7.05;;
77864;SDS011;67061;48.524;9.040;2023-08-24T11:54:01;8.25;;;7.45;;
77864;SDS011;67061;48.524;9.040;2023-08-24T11:56:29;7.05;;;6.35;;
77864;SDS011;67061;48.524;9.040;2023-08-24T11:58:56;8.48;;;7.65;;
77864;SDS011;67061;48.524;9.040;2023-08-24T12:01:23;8.52;;;7.43;;
77864;SDS011;67061;48.524;9.040;2023-08-24T12:03:52;11.90;;;5.72;;
77864;SDS011;67061;48.524;9.040;2023-08-24T12:06:19;8.85;;;8.02;;
77864;SDS011;67061;48.524;9.040;2023-08-24T12:08:46;8.90;;;7.47;;
77864;SDS011;67061;48.524;9.040;2023-08-24T12:11:17;9.18;;;7.22;;
77864;SDS011;67061;48.524;9.040;2023-08-24T12:13:46;8.05;;;6.97;;
77864;SDS011;67061;48.524;9.040;2023-08-24T12:16:15;11.88;;;7.75;;
77864;SDS011;67061;48.524;9.040;2023-08-24T12:18:46;7.65;;;6.85;;
77864;SDS011;67061;48.524;9.040;2023-08-24T12:21:14;8.30;;;7.47;;
77864;SDS011;67061;48.524;9.040;2023-08-24T12:23:41;8.63;;;7.43;;
77864;SDS011;67061;48.524;9.040;2023-08-24T12:26:08;8.60;;;7.05;;
77864;SDS011;67061;48.524;9.040;2023-08-24T12:28:48;11.60;;;7.72;;
77864;SDS011;67061;48.524;9.040;2023-08-24T12:31:16;9.45;;;7.28;;
77864;SDS011;67061;48.524;9.040;2023-08-24T12:33:44;11.38;;;7.93;;
77864;SDS011;67061;48.524;9.040;2023-08-24T12:36:11;10.60;;;8.15;;
77864;SDS011;67061;48.524;9.040;2023-08-24T12:38:38;8.75;;;6.65;;
77864;SDS011;67061;48.524;9.040;2023-08-24T12:41:07;8.32;;;6.70;;
77864;SDS011;67061;48.524;9.040;2023-08-24T12:43:35;7.85;;;7.05;;
77864;SDS011;67061;48.524;9.040;2023-08-24T12:46:02;9.48;;;7.45;;
77864;SDS011;67061;48.524;9.040;2023-08-24T12:48:29;9.40;;;7.07;;
77864;SDS011;67061;48.524;9.040;2023-08-24T12:50:56;7.97;;;6.82;;
77864;SDS011;67061;48.524;9.040;2023-08-24T12:53:23;10.13;;;6.30;;
77864;SDS011;67061;48.524;9.040;2023-08-24T12:55:50;8.80;;;5.57;;
77864;SDS011;67061;48.524;9.040;2023-08-24T12:58:17;8.27;;;6.38;;
77864;SDS011;67061;48.524;9.040;2023-08-24T13:00:46;9.10;;;6.28;;
77864;SDS011;67061;48.524;9.040;2023-08-24T13:03:14;8.82;;;6.75;;
77864;SDS011;67061;48.524;9.040;2023-08-24T13:05:41;7.85;;;6.03;;
77864;SDS011;67061;48.524;9.040;2023-08-24T13:08:08;8.70;;;6.72;;
77864;SDS011;67061;48.524;9.040;2023-08-24T13:10:35;11.95;;;6.28;;
77864;SDS011;67061;48.524;9.040;2023-08-24T13:13:03;7.93;;;6.75;;
77864;SDS011;67061;48.524;9.040;2023-08-24T13:15:30;10.38;;;6.40;;
77864;SDS011;67061;48.524;9.040;2023-08-24T13:17:58;10.45;;;6.22;;
77864;SDS011;67061;48.524;9.040;2023-08-24T13:20:25;14.38;;;5.68;;
77864;SDS011;67061;48.524;9.040;2023-08-24T13:22:52;9.57;;;6.25;;
77864;SDS011;67061;48.524;9.040;2023-08-24T13:25:19;8.63;;;7.10;;
77864;SDS011;67061;48.524;9.040;2023-08-24T13:27:46;10.80;;;6.13;;
77864;SDS011;67061;48.524;9.040;2023-08-24T13:30:13;9.55;;;5.63;;
77864;SDS011;67061;48.524;9.040;2023-08-24T13:32:40;9.23;;;5.82;;
77864;SDS011;67061;48.524;9.040;2023-08-24T13:35:09;9.73;;;5.63;;
77864;SDS011;67061;48.524;9.040;2023-08-24T13:37:36;10.35;;;6.18;;
77864;SDS011;67061;48.524;9.040;2023-08-24T13:40:03;10.50;;;5.43;;
77864;SDS011;67061;48.524;9.040;2023-08-24T13:42:32;11.82;;;5.65;;
77864;SDS011;67061;48.524;9.040;2023-08-24T13:44:59;9.75;;;6.43;;
77864;SDS011;67061;48.524;9.040;2023-08-24T13:47:26;11.60;;;6.20;;
77864;SDS011;67061;48.524;9.040;2023-08-24T13:49:53;11.05;;;6.50;;
77864;SDS011;67061;48.524;9.040;2023-08-24T13:52:21;8.95;;;6.20;;
77864;SDS011;67061;48.524;9.040;2023-08-24T13:54:48;11.18;;;6.35;;
77864;SDS011;67061;48.524;9.040;2023-08-24T13:57:15;10.77;;;6.15;;
77864;SDS011;67061;48.524;9.040;2023-08-24T13:59:42;7.20;;;5.88;;
77864;SDS011;67061;48.524;9.040;2023-08-24T14:02:09;8.02;;;6.10;;
77864;SDS011;67061;48.524;9.040;2023-08-24T14:04:36;9.13;;;6.07;;
77864;SDS011;67061;48.524;9.040;2023-08-24T14:07:04;9.40;;;6.28;;
77864;SDS011;67061;48.524;9.040;2023-08-24T14:09:32;10.40;;;6.32;;
77864;SDS011;67061;48.524;9.040;2023-08-24T14:11:59;9.00;;;5.95;;
77864;SDS011;67061;48.524;9.040;2023-08-24T14:14:26;11.05;;;5.50;;
77864;SDS011;67061;48.524;9.040;2023-08-24T14:16:53;9.70;;;5.78;;
77864;SDS011;67061;48.524;9.040;2023-08-24T14:19:21;12.48;;;6.32;;
77864;SDS011;67061;48.524;9.040;2023-08-24T14:21:48;10.23;;;5.65;;
77864;SDS011;67061;48.524;9.040;2023-08-24T14:24:15;10.43;;;5.80;;
77864;SDS011;67061;48.524;9.040;2023-08-24T14:26:43;11.48;;;6.10;;
77864;SDS011;67061;48.524;9.040;2023-08-24T14:29:11;13.25;;;6.53;;
77864;SDS011;67061;48.524;9.040;2023-08-24T14:31:39;12.05;;;7.35;;
77864;SDS011;67061;48.524;9.040;2023-08-24T14:34:06;12.52;;;6.22;;
77864;SDS011;67061;48.524;9.040;2023-08-24T14:36:33;9.93;;;6.47;;
77864;SDS011;67061;48.524;9.040;2023-08-24T14:39:00;12.30;;;5.63;;
77864;SDS011;67061;48.524;9.040;2023-08-24T14:41:27;8.80;;;5.28;;
77864;SDS011;67061;48.524;9.040;2023-08-24T14:43:55;10.02;;;5.75;;
77864;SDS011;67061;48.524;9.040;2023-08-24T14:46:22;11.93;;;5.53;;
77864;SDS011;67061;48.524;9.040;2023-08-24T14:48:49;11.52;;;6.60;;
77864;SDS011;67061;48.524;9.040;2023-08-24T14:51:15;9.65;;;6.07;;
77864;SDS011;67061;48.524;9.040;2023-08-24T14:53:42;9.95;;;5.63;;
77864;SDS011;67061;48.524;9.040;2023-08-24T14:56:09;9.30;;;5.60;;
77864;SDS011;67061;48.524;9.040;2023-08-24T14:58:36;13.23;;;5.82;;
77864;SDS011;67061;48.524;9.040;2023-08-24T15:01:05;10.40;;;6.05;;
77864;SDS011;67061;48.524;9.040;2023-08-24T15:03:31;11.77;;;6.90;;
77864;SDS011;67061;48.524;9.040;2023-08-24T15:05:59;8.65;;;6.25;;
77864;SDS011;67061;48.524;9.040;2023-08-24T15:08:29;10.88;;;6.13;;
77864;SDS011;67061;48.524;9.040;2023-08-24T15:10:57;10.48;;;6.03;;